Time;durP1;ratioP1;P1;durP2;ratioP2;P2;SDS_P1;SDS_P2;PMS_P1;PMS_P2;Temp;Humidity;BMP_temperature;BMP_pressure;BME280_temperature;BME280_humidity;BME280_pressure;Samples;Min_cycle;Max_cycle;Signal;HPM_P1;HPM_P2
2022/01/23 00:00:47;;;;;;;32.47;16.20;;;;;;;4.60;99.90;103466.22;5091922;28;20020;-67
2022/01/23 00:03:17;;;;;;;31.92;15.73;;;;;;;4.59;100.00;103470.69;5090692;28;20398;-68
2022/01/23 00:05:45;;;;;;;29.70;16.45;;;;;;;4.58;99.98;103474.28;5091871;28;20032;-68
2022/01/23 00:08:13;;;;;;;32.75;15.73;;;;;;;4.58;99.69;103471.63;5091290;28;20028;-67
2022/01/23 00:10:40;;;;;;;32.05;17.25;;;;;;;4.57;99.96;103467.28;5090890;28;20147;-68
2022/01/23 00:13:13;;;;;;;32.55;14.00;;;;;;;4.56;99.63;103464.75;5071501;28;20056;-68
2022/01/23 00:18:23;;;;;;;29.90;13.05;;;;;;;4.55;99.74;103458.56;5092022;28;20166;-68
2022/01/23 00:20:49;;;;;;;28.75;14.23;;;;;;;4.56;99.96;103454.16;5091734;28;20479;-68
2022/01/23 00:23:29;;;;;;;27.58;14.43;;;;;;;4.57;100.00;103454.06;5091536;28;20031;-68
2022/01/23 00:31:26;;;;;;;29.90;16.52;;;;;;;4.55;99.68;103450.66;5091287;28;20078;-68
2022/01/23 00:33:54;;;;;;;32.80;16.40;;;;;;;4.57;99.54;103446.13;5091466;28;20166;-68
2022/01/23 00:36:24;;;;;;;28.70;14.00;;;;;;;4.57;99.95;103454.06;5091634;28;20048;-68
2022/01/23 00:38:50;;;;;;;28.67;14.50;;;;;;;4.56;99.75;103447.09;5091435;28;20051;-68
2022/01/23 00:41:17;;;;;;;30.30;14.77;;;;;;;4.54;99.79;103456.88;5091227;28;20047;-67
2022/01/23 00:43:44;;;;;;;27.50;13.30;;;;;;;4.55;99.77;103461.22;5090965;28;20032;-68
2022/01/23 00:51:29;;;;;;;36.00;15.60;;;;;;;4.55;99.51;103455.09;5091001;28;20028;-68
2022/01/23 00:53:58;;;;;;;32.15;15.10;;;;;;;4.55;100.00;103453.28;5071533;28;20032;-68
2022/01/23 00:56:24;;;;;;;27.50;12.98;;;;;;;4.55;99.78;103452.44;5070203;28;20062;-68
2022/01/23 00:58:49;;;;;;;34.55;13.45;;;;;;;4.55;99.79;103452.44;5071554;28;20059;-68
2022/01/23 01:01:16;;;;;;;28.13;14.18;;;;;;;4.55;99.49;103450.66;5071289;28;20531;-68
2022/01/23 01:03:42;;;;;;;31.10;14.93;;;;;;;4.55;99.82;103444.53;5071423;28;20086;-68
2022/01/23 01:06:08;;;;;;;32.35;15.23;;;;;;;4.54;99.71;103441.03;5089682;28;20081;-68
2022/01/23 01:08:33;;;;;;;25.48;13.77;;;;;;;4.55;99.77;103444.53;5089881;28;20533;-68
2022/01/23 01:11:26;;;;;;;30.88;15.40;;;;;;;4.55;99.55;103442.72;5090166;28;20488;-68
2022/01/23 01:32:50;;;;;;;28.42;13.63;;;;;;;4.54;99.66;103456.88;5090209;28;20108;-68
2022/01/23 01:37:46;;;;;;;26.42;12.25;;;;;;;4.54;99.81;103456.03;5089184;28;20081;-68
2022/01/23 01:40:12;;;;;;;31.02;14.80;;;;;;;4.53;100.00;103449.91;5089918;28;20028;-68
2022/01/23 01:42:37;;;;;;;31.85;13.75;;;;;;;4.51;99.77;103458.88;5089986;28;20036;-67
2022/01/23 01:45:03;;;;;;;27.48;12.82;;;;;;;4.53;99.77;103460.50;5089888;28;20024;-67
2022/01/23 01:47:28;;;;;;;27.65;13.95;;;;;;;4.54;99.85;103462.16;5089830;28;20115;-68
2022/01/23 01:49:54;;;;;;;28.38;13.75;;;;;;;4.52;99.83;103466.69;5089902;28;20039;-67
2022/01/23 01:52:20;;;;;;;28.30;14.00;;;;;;;4.54;99.83;103472.75;5088532;28;20031;-68
2022/01/23 01:54:47;;;;;;;31.25;13.85;;;;;;;4.54;99.91;103470.09;5089846;28;20024;-68
2022/01/23 01:57:14;;;;;;;33.58;15.38;;;;;;;4.55;99.86;103468.31;5089120;28;20437;-68
2022/01/23 02:00:11;;;;;;;29.48;14.68;;;;;;;4.54;100.00;103475.38;5088533;28;20031;-67
2022/01/23 02:10:39;;;;;;;31.85;15.05;;;;;;;4.51;100.00;103457.06;5073926;28;20043;-68
2022/01/23 02:13:13;;;;;;;28.50;14.45;;;;;;;4.51;100.00;103450.94;5089126;28;20048;-68
2022/01/23 02:18:31;;;;;;;34.17;18.20;;;;;;;4.51;100.00;103432.44;5088886;28;20475;-68
2022/01/23 02:51:39;;;;;;;30.63;13.88;;;;;;;4.41;99.85;103424.22;5089433;28;20039;-68
2022/01/23 02:56:51;;;;;;;30.95;14.15;;;;;;;4.44;100.00;103420.53;5089231;28;20024;-67
2022/01/23 02:59:27;;;;;;;29.58;15.55;;;;;;;4.44;100.00;103420.53;5089015;28;20032;-67
2022/01/23 03:02:26;;;;;;;27.88;13.60;;;;;;;4.44;100.00;103423.19;5087413;28;20107;-67
2022/01/23 03:04:53;;;;;;;29.42;13.15;;;;;;;4.44;100.00;103413.47;5088386;28;20067;-68
2022/01/23 03:10:10;;;;;;;31.33;13.88;;;;;;;4.44;100.00;103420.53;5093162;28;20134;-67
2022/01/23 03:15:27;;;;;;;30.67;15.38;;;;;;;4.43;100.00;103424.09;5092889;28;20682;-68
2022/01/23 03:34:18;;;;;;;;;;;;;;;4.44;100.00;103434.59;5050612;28;20048;-68
2022/01/23 03:36:44;;;;;;;31.25;12.55;;;;;;;4.41;100.00;103429.50;5061766;28;19961;-68
2022/01/23 03:39:10;;;;;;;29.90;14.40;;;;;;;4.43;99.96;103429.41;5073036;28;20029;-67
2022/01/23 03:41:42;;;;;;;29.05;14.32;;;;;;;4.42;100.00;103427.72;5072928;28;20035;-68
2022/01/23 03:44:09;;;;;;;27.95;12.77;;;;;;;4.41;99.92;103436.59;5072804;28;20082;-68
2022/01/23 03:51:47;;;;;;;26.23;14.20;;;;;;;4.42;100.00;103443.56;5073162;28;20050;-67
2022/01/23 03:54:12;;;;;;;28.00;12.93;;;;;;;4.43;99.97;103446.13;5076040;28;20127;-68
2022/01/23 03:56:38;;;;;;;31.70;13.43;;;;;;;4.41;100.00;103439.22;5092184;28;20107;-67
2022/01/23 03:59:03;;;;;;;28.38;14.80;;;;;;;4.41;100.00;103437.44;5092053;28;20029;-68
2022/01/23 04:01:28;;;;;;;26.30;13.63;;;;;;;4.38;100.00;103435.81;5091915;28;20028;-67
2022/01/23 04:03:57;;;;;;;29.58;13.00;;;;;;;4.34;100.00;103438.72;5089807;28;20425;-68
2022/01/23 04:06:23;;;;;;;28.45;13.45;;;;;;;4.38;100.00;103450.84;5072301;28;20502;-68
2022/01/23 04:08:49;;;;;;;29.02;12.82;;;;;;;4.33;99.96;103445.81;5072549;28;20036;-68
2022/01/23 04:11:15;;;;;;;28.02;13.35;;;;;;;4.35;99.95;103451.88;5071267;28;20040;-68
2022/01/23 04:14:15;;;;;;;27.63;12.75;;;;;;;4.32;99.76;103444.13;5071783;28;20186;-68
2022/01/23 04:17:12;;;;;;;30.27;14.65;;;;;;;4.36;99.84;103455.34;5088236;28;20032;-67
2022/01/23 04:46:53;;;;;;;25.58;12.88;;;;;;;4.27;99.89;103453.25;5091303;28;20089;-68
2022/01/23 05:00:15;;;;;;;24.88;12.05;;;;;;;4.24;100.00;103449.00;5071057;28;20071;-68
2022/01/23 05:05:30;;;;;;;28.23;12.60;;;;;;;4.27;100.00;103462.03;5071316;28;20129;-68
2022/01/23 05:07:56;;;;;;;28.65;12.20;;;;;;;4.28;100.00;103458.44;5071345;28;20028;-68
2022/01/23 05:10:22;;;;;;;24.85;10.88;;;;;;;4.26;100.00;103457.69;5071335;28;20036;-68
2022/01/23 05:12:47;;;;;;;26.30;14.30;;;;;;;4.27;100.00;103466.44;5070806;28;20667;-67
2022/01/23 05:15:13;;;;;;;25.88;11.75;;;;;;;4.26;100.00;103452.41;5070751;28;20128;-68
2022/01/23 05:17:39;;;;;;;28.08;12.18;;;;;;;4.26;100.00;103462.13;5071206;28;20894;-68
2022/01/23 05:20:06;;;;;;;25.73;12.10;;;;;;;4.22;100.00;103452.66;5071107;28;20540;-68
2022/01/23 05:22:40;;;;;;;26.77;11.68;;;;;;;4.26;100.00;103457.69;5070967;28;20153;-68
2022/01/23 05:25:16;;;;;;;26.35;11.68;;;;;;;4.28;100.00;103460.25;5070902;28;20077;-68
2022/01/23 05:27:41;;;;;;;25.48;12.25;;;;;;;4.28;100.00;103462.88;5088985;28;20082;-68
2022/01/23 05:30:07;;;;;;;28.05;13.88;;;;;;;4.30;100.00;103463.66;5088625;28;20028;-67
2022/01/23 05:32:37;;;;;;;33.38;13.02;;;;;;;4.31;100.00;103460.91;5089406;28;20036;-68
2022/01/23 05:35:03;;;;;;;26.80;13.00;;;;;;;4.32;100.00;103451.19;5089501;28;20044;-67
2022/01/23 05:37:28;;;;;;;27.20;11.95;;;;;;;4.31;100.00;103457.41;5090068;28;20028;-68
2022/01/23 05:39:54;;;;;;;26.35;12.55;;;;;;;4.31;100.00;103466.19;5090045;28;20038;-67
2022/01/23 05:42:19;;;;;;;25.92;12.65;;;;;;;4.32;100.00;103467.03;5090099;28;20020;-68
2022/01/23 05:44:44;;;;;;;26.15;11.95;;;;;;;4.31;100.00;103460.91;5088662;28;20036;-67
2022/01/23 05:47:11;;;;;;;32.17;13.30;;;;;;;4.32;100.00;103470.53;5089971;28;20048;-68
2022/01/23 05:49:37;;;;;;;29.92;13.10;;;;;;;4.32;100.00;103467.03;5089891;28;20402;-68
2022/01/23 05:52:04;;;;;;;28.02;12.70;;;;;;;4.30;100.00;103466.28;5089744;28;20053;-67
2022/01/23 05:54:29;;;;;;;27.02;12.13;;;;;;;4.26;100.00;103462.97;5089295;28;20044;-68
2022/01/23 05:56:55;;;;;;;27.08;12.75;;;;;;;4.26;100.00;103457.69;5089761;28;20031;-68
2022/01/23 05:59:21;;;;;;;28.95;11.65;;;;;;;4.29;100.00;103460.13;5089813;28;20059;-68
2022/01/23 06:01:47;;;;;;;28.98;13.55;;;;;;;4.29;100.00;103457.50;5090052;28;20616;-68
2022/01/23 06:04:13;;;;;;;25.90;13.40;;;;;;;4.30;100.00;103453.94;5089796;28;20047;-68
2022/01/23 06:06:38;;;;;;;27.15;12.05;;;;;;;4.29;100.00;103449.56;5089663;28;20028;-68
2022/01/23 06:09:04;;;;;;;25.67;10.75;;;;;;;4.25;100.00;103452.50;5089244;28;20036;-67
2022/01/23 06:11:30;;;;;;;25.42;11.32;;;;;;;4.21;100.00;103451.81;5089193;28;20082;-67
2022/01/23 06:13:55;;;;;;;25.98;11.18;;;;;;;4.18;100.00;103444.09;5089323;28;20146;-68
2022/01/23 06:16:20;;;;;;;25.27;11.32;;;;;;;4.27;100.00;103456.75;5088988;28;20047;-68
2022/01/23 06:18:46;;;;;;;28.55;12.50;;;;;;;4.26;100.00;103465.59;5089406;28;20024;-68
2022/01/23 06:21:16;;;;;;;26.08;12.45;;;;;;;4.28;100.00;103474.28;5089399;28;20119;-68
2022/01/23 06:23:42;;;;;;;27.25;12.38;;;;;;;4.28;100.00;103469.00;5089442;28;20383;-68
2022/01/23 06:26:07;;;;;;;24.33;13.63;;;;;;;4.27;100.00;103463.81;5087895;28;20032;-68
2022/01/23 06:28:58;;;;;;;24.55;11.40;;;;;;;4.31;100.00;103465.34;5088093;28;20032;-68
2022/01/23 06:31:24;;;;;;;22.33;11.05;;;;;;;4.27;100.00;103475.25;5089439;28;20081;-68
2022/01/23 06:33:49;;;;;;;25.13;12.57;;;;;;;4.33;100.00;103474.03;5089178;28;20433;-68
2022/01/23 06:36:14;;;;;;;32.33;13.25;;;;;;;4.28;100.00;103471.66;5087919;28;20382;-67
2022/01/23 06:38:40;;;;;;;24.60;11.70;;;;;;;4.31;100.00;103471.47;5089251;28;20028;-68
2022/01/23 06:41:05;;;;;;;28.48;12.70;;;;;;;4.33;100.00;103472.22;5087559;28;20039;-68
2022/01/23 06:43:30;;;;;;;25.50;12.18;;;;;;;4.34;100.00;103473.91;5092136;28;20093;-68
2022/01/23 06:45:56;;;;;;;24.15;11.40;;;;;;;4.32;100.00;103472.31;5093439;28;20036;-68
2022/01/23 06:48:21;;;;;;;25.52;11.02;;;;;;;4.32;100.00;103473.19;5093310;28;20104;-68
2022/01/23 06:50:47;;;;;;;25.35;12.18;;;;;;;4.35;100.00;103475.63;5093285;28;20032;-68
2022/01/23 06:53:12;;;;;;;24.95;11.93;;;;;;;4.37;100.00;103480.81;5092137;28;20430;-68
2022/01/23 06:55:37;;;;;;;29.83;13.70;;;;;;;4.36;100.00;103484.41;5093304;28;20024;-68
2022/01/23 06:58:03;;;;;;;26.95;12.20;;;;;;;4.36;100.00;103482.63;5093333;28;20027;-68
2022/01/23 07:00:28;;;;;;;28.98;14.18;;;;;;;4.36;100.00;103487.91;5093269;28;20027;-68
2022/01/23 07:02:54;;;;;;;24.88;12.35;;;;;;;4.38;100.00;103493.94;5093056;28;20031;-68
2022/01/23 07:05:19;;;;;;;25.17;11.85;;;;;;;4.37;100.00;103494.88;5093286;28;20038;-67
2022/01/23 07:07:45;;;;;;;30.50;14.70;;;;;;;4.38;100.00;103496.59;5092861;28;20494;-68
2022/01/23 07:10:10;;;;;;;26.77;11.73;;;;;;;4.39;100.00;103500.06;5092990;28;20032;-67
2022/01/23 07:12:35;;;;;;;26.77;12.95;;;;;;;4.39;100.00;103500.06;5092739;28;20060;-68
2022/01/23 07:15:01;;;;;;;25.85;12.25;;;;;;;4.39;100.00;103500.06;5093037;28;20043;-68
2022/01/23 07:17:26;;;;;;;24.90;11.10;;;;;;;4.38;100.00;103508.97;5091048;28;20028;-68
2022/01/23 07:19:51;;;;;;;25.23;12.52;;;;;;;4.39;100.00;103510.66;5092871;28;20371;-68
2022/01/23 07:22:17;;;;;;;24.27;12.40;;;;;;;4.34;100.00;103499.50;5091588;28;20518;-67
2022/01/23 07:24:42;;;;;;;27.67;12.57;;;;;;;4.40;100.00;103517.63;5092721;28;20601;-68
2022/01/23 07:27:15;;;;;;;28.00;13.00;;;;;;;4.39;100.00;103511.50;5092597;28;20028;-68
2022/01/23 07:29:42;;;;;;;26.65;13.98;;;;;;;4.36;100.00;103505.56;5092696;28;20047;-68
2022/01/23 07:32:09;;;;;;;28.17;13.07;;;;;;;4.44;100.00;103524.44;5092612;28;20024;-68
2022/01/23 07:34:35;;;;;;;27.20;12.65;;;;;;;4.42;100.00;103526.31;5092220;28;20782;-68
2022/01/23 07:37:00;;;;;;;25.95;13.20;;;;;;;4.47;100.00;103529.53;5092437;28;20024;-68
2022/01/23 07:39:26;;;;;;;30.02;13.73;;;;;;;4.45;100.00;103525.28;5091077;28;20032;-68
2022/01/23 07:41:52;;;;;;;27.05;12.27;;;;;;;4.50;100.00;103539.06;5091622;28;20379;-68
2022/01/23 07:44:17;;;;;;;28.25;12.82;;;;;;;4.50;100.00;103541.72;5091142;28;20020;-68
2022/01/23 07:46:42;;;;;;;26.35;11.70;;;;;;;4.49;100.00;103546.16;5092168;28;20028;-69
2022/01/23 07:49:08;;;;;;;25.77;12.02;;;;;;;4.51;100.00;103541.66;5092393;28;20110;-68
2022/01/23 07:51:34;;;;;;;26.00;12.80;;;;;;;4.51;100.00;103535.50;5092192;28;20615;-68
2022/01/23 07:53:59;;;;;;;30.80;12.85;;;;;;;4.53;100.00;103541.53;5091172;28;20020;-68
2022/01/23 07:56:25;;;;;;;29.73;13.93;;;;;;;4.54;100.00;103549.38;5092125;28;20039;-68
2022/01/23 07:58:51;;;;;;;26.95;14.20;;;;;;;4.50;100.00;103533.78;5092026;28;20471;-68
2022/01/23 08:01:17;;;;;;;28.70;13.55;;;;;;;4.54;100.00;103546.75;5090736;28;20031;-69
2022/01/23 08:03:42;;;;;;;27.75;13.95;;;;;;;4.55;100.00;103544.94;5091968;28;20043;-68
2022/01/23 08:06:11;;;;;;;27.98;11.52;;;;;;;4.57;100.00;103543.91;5091751;28;20111;-69
2022/01/23 08:08:36;;;;;;;33.13;16.20;;;;;;;4.60;100.00;103550.81;5091842;28;20031;-68
2022/01/23 08:11:01;;;;;;;25.48;12.68;;;;;;;4.61;100.00;103552.50;5091620;28;20472;-68
2022/01/23 08:13:27;;;;;;;29.75;14.45;;;;;;;4.61;100.00;103544.56;5091525;28;20056;-68
2022/01/23 08:15:52;;;;;;;28.73;13.10;;;;;;;4.66;100.00;103552.22;5091598;28;20028;-68
2022/01/23 08:18:18;;;;;;;29.02;13.93;;;;;;;4.65;100.00;103556.69;5090869;28;20020;-68
2022/01/23 08:20:43;;;;;;;32.35;14.27;;;;;;;4.65;100.00;103554.03;5091261;28;20024;-68
2022/01/23 08:23:09;;;;;;;28.60;13.27;;;;;;;4.69;99.85;103554.69;5091646;28;20028;-68
2022/01/23 08:25:34;;;;;;;28.10;13.77;;;;;;;4.69;99.77;103557.34;5091591;28;20024;-68
2022/01/23 08:28:01;;;;;;;27.88;13.70;;;;;;;4.67;99.78;103549.50;5091498;28;20047;-68
2022/01/23 08:30:27;;;;;;;27.38;13.65;;;;;;;4.67;99.98;103543.38;5090182;28;20032;-68
2022/01/23 08:32:52;;;;;;;28.75;14.18;;;;;;;4.75;100.00;103565.78;5091452;28;20039;-68
2022/01/23 08:35:18;;;;;;;26.50;12.98;;;;;;;4.74;99.71;103560.56;5091708;28;20031;-68
2022/01/23 08:37:43;;;;;;;28.08;13.23;;;;;;;4.78;99.72;103568.22;5090002;28;20028;-68
2022/01/23 08:40:21;;;;;;;28.17;13.40;;;;;;;4.81;100.00;103553.97;5091234;28;20024;-68
2022/01/23 08:42:46;;;;;;;32.42;13.95;;;;;;;4.80;99.67;103565.50;5091522;28;20024;-68
2022/01/23 08:45:13;;;;;;;28.50;14.43;;;;;;;4.84;99.32;103570.50;5091052;28;20383;-68
2022/01/23 08:47:39;;;;;;;28.92;13.40;;;;;;;4.84;99.70;103567.84;5089698;28;20036;-72
2022/01/23 08:50:06;;;;;;;28.52;15.40;;;;;;;4.86;99.62;103581.00;5090999;28;20028;-68
2022/01/23 08:52:31;;;;;;;29.83;12.73;;;;;;;4.87;99.43;103579.19;5090915;28;20111;-68
2022/01/23 08:54:56;;;;;;;30.23;13.85;;;;;;;4.88;99.49;103581.75;5090914;28;20161;-68
2022/01/23 08:57:23;;;;;;;29.45;14.18;;;;;;;4.86;99.63;103578.34;5090783;28;20024;-68
2022/01/23 08:59:49;;;;;;;29.45;14.45;;;;;;;4.89;99.75;103582.59;5090555;28;20032;-68
2022/01/23 09:02:16;;;;;;;27.67;14.55;;;;;;;4.85;100.00;103579.31;5090793;28;20920;-68
2022/01/23 09:04:42;;;;;;;30.13;14.10;;;;;;;4.89;100.00;103583.44;5090574;28;20089;-68
2022/01/23 09:07:07;;;;;;;26.88;12.32;;;;;;;4.90;100.00;103582.53;5090731;28;20497;-68
2022/01/23 09:09:37;;;;;;;28.90;13.88;;;;;;;4.91;99.92;103572.78;5090256;28;20024;-68
2022/01/23 09:12:10;;;;;;;30.15;14.18;;;;;;;4.94;99.60;103580.53;5090320;28;20028;-68
2022/01/23 09:14:36;;;;;;;32.58;14.68;;;;;;;4.95;99.86;103575.16;5090457;28;20533;-68
2022/01/23 09:17:03;;;;;;;31.75;15.32;;;;;;;5.00;100.00;103577.50;5090471;28;20114;-68
2022/01/23 09:19:29;;;;;;;29.90;13.95;;;;;;;5.03;99.82;103570.25;5090422;28;20463;-68
2022/01/23 09:21:56;;;;;;;32.05;15.55;;;;;;;5.00;99.31;103564.28;5089908;28;20032;-68
2022/01/23 09:24:24;;;;;;;31.00;15.82;;;;;;;5.11;99.49;103574.22;5090366;28;20051;-68
2022/01/23 09:27:00;;;;;;;31.45;16.10;;;;;;;5.14;99.56;103577.53;5090328;28;20024;-68
2022/01/23 09:29:32;;;;;;;31.05;15.23;;;;;;;5.16;99.69;103570.38;5070569;28;20549;-68
2022/01/23 09:31:58;;;;;;;32.88;16.33;;;;;;;5.22;99.54;103577.91;5089197;28;20391;-68
2022/01/23 09:34:31;;;;;;;28.73;15.05;;;;;;;5.26;99.16;103575.91;5090204;28;20035;-68
2022/01/23 09:36:57;;;;;;;28.50;13.95;;;;;;;5.30;98.81;103571.31;5090100;28;20387;-68
2022/01/23 09:39:23;;;;;;;29.00;15.35;;;;;;;5.25;99.01;103561.84;5089909;28;20067;-68
2022/01/23 09:41:56;;;;;;;31.98;15.10;;;;;;;5.38;98.57;103577.81;5090145;28;20543;-68
2022/01/23 09:44:22;;;;;;;29.90;15.23;;;;;;;5.41;98.39;103579.44;5089965;28;20040;-68
2022/01/23 09:46:48;;;;;;;30.50;15.80;;;;;;;5.38;98.10;103574.31;5089983;28;20039;-68
2022/01/23 09:49:15;;;;;;;30.50;14.27;;;;;;;5.41;98.12;103590.84;5088737;28;21012;-68
2022/01/23 09:51:44;;;;;;;35.30;17.08;;;;;;;5.50;98.17;103600.00;5070229;28;20040;-68
2022/01/23 09:54:11;;;;;;;31.45;15.77;;;;;;;5.51;98.19;103591.16;5089621;28;20027;-68
2022/01/23 09:56:37;;;;;;;32.13;16.45;;;;;;;5.55;97.86;103597.94;5089795;28;20032;-68
2022/01/23 09:59:03;;;;;;;33.70;15.20;;;;;;;5.59;98.15;103594.16;5088444;28;20119;-68
2022/01/23 10:01:28;;;;;;;33.80;16.15;;;;;;;5.64;98.43;103591.22;5089505;28;20032;-67
2022/01/23 10:03:54;;;;;;;28.85;15.52;;;;;;;5.66;97.70;103603.44;5084697;28;20028;-67
2022/01/23 10:06:19;;;;;;;31.00;15.55;;;;;;;5.68;97.51;103592.72;5073610;28;20037;-68
2022/01/23 10:08:47;;;;;;;33.03;15.55;;;;;;;5.68;97.30;103592.72;5074386;28;20024;-69
2022/01/23 10:11:14;;;;;;;33.78;18.00;;;;;;;5.72;97.28;103597.72;5073677;28;20024;-69
2022/01/23 10:13:41;;;;;;;33.58;16.30;;;;;;;5.77;97.09;103596.59;5074003;28;20045;-67
2022/01/23 10:16:07;;;;;;;32.25;15.75;;;;;;;5.81;96.87;103591.00;5071020;28;20369;-68
2022/01/23 10:18:33;;;;;;;38.88;19.63;;;;;;;5.85;96.93;103595.16;5072468;28;20024;-67
2022/01/23 10:20:59;;;;;;;31.95;16.42;;;;;;;5.88;96.60;103589.66;5073570;28;20094;-67
2022/01/23 10:23:25;;;;;;;33.00;16.00;;;;;;;5.90;96.14;103593.06;5073127;28;20028;-66
2022/01/23 10:25:52;;;;;;;33.00;15.60;;;;;;;5.92;96.09;103598.25;5073028;28;20487;-68
2022/01/23 10:28:21;;;;;;;35.88;17.15;;;;;;;5.91;96.09;103586.81;5074054;28;20032;-67
2022/01/23 10:30:54;;;;;;;29.30;16.25;;;;;;;5.93;96.59;103586.72;5073400;28;20016;-66
2022/01/23 10:33:23;;;;;;;32.95;17.38;;;;;;;5.98;96.58;103579.38;5072841;28;20024;-66
2022/01/23 10:35:54;;;;;;;37.20;19.40;;;;;;;6.04;96.04;103584.25;5074289;28;20042;-66
2022/01/23 10:38:20;;;;;;;33.13;16.85;;;;;;;6.09;96.07;103587.47;5074341;28;20050;-67
2022/01/23 10:40:54;;;;;;;34.45;17.35;;;;;;;6.10;95.84;103583.88;5073729;28;20030;-68
2022/01/23 10:48:36;;;;;;;33.97;17.23;;;;;;;6.14;94.37;103589.81;5069419;28;20109;-67
2022/01/23 10:51:16;;;;;;;32.30;16.10;;;;;;;6.15;95.15;103589.69;5069846;28;20052;-67
2022/01/23 10:54:17;;;;;;;35.78;17.48;;;;;;;6.17;95.10;103588.78;5069772;28;20178;-68
2022/01/23 10:57:06;;;;;;;31.37;16.47;;;;;;;6.12;94.99;103586.41;5088949;28;20020;-67
2022/01/23 10:59:52;;;;;;;29.70;15.40;;;;;;;6.12;95.08;103581.97;5089118;28;20499;-68
2022/01/23 11:02:21;;;;;;;32.55;15.27;;;;;;;6.19;95.24;103577.13;5088811;28;20088;-67
2022/01/23 11:05:03;;;;;;;34.40;15.55;;;;;;;6.22;94.61;103576.91;5088711;28;20108;-67
2022/01/23 11:07:30;;;;;;;35.90;17.17;;;;;;;6.30;94.81;103577.25;5088911;28;20399;-68
2022/01/23 11:10:05;;;;;;;34.28;16.30;;;;;;;6.35;94.35;103584.91;5088864;28;20483;-67
2022/01/23 11:18:00;;;;;;;40.67;16.65;;;;;;;6.39;94.86;103570.50;5089475;28;20039;-67
2022/01/23 11:20:39;;;;;;;35.10;16.67;;;;;;;6.43;95.04;103573.81;5088235;28;20115;-67
2022/01/23 11:23:16;;;;;;;33.08;17.38;;;;;;;6.45;94.46;103572.75;5088183;28;20115;-67
2022/01/23 11:25:44;;;;;;;29.88;15.75;;;;;;;6.45;94.42;103562.16;5088670;28;20386;-67
2022/01/23 11:28:10;;;;;;;33.28;19.00;;;;;;;6.52;94.81;103565.22;5089443;28;20035;-67
2022/01/23 11:30:40;;;;;;;32.35;17.45;;;;;;;6.55;94.95;103560.59;5092703;28;20123;-67
2022/01/23 11:33:09;;;;;;;35.55;17.40;;;;;;;6.58;93.83;103562.19;5092659;28;20181;-72
2022/01/23 11:35:35;;;;;;;35.08;16.73;;;;;;;6.54;93.89;103561.50;5091093;28;20414;-68
2022/01/23 11:38:01;;;;;;;36.28;18.83;;;;;;;6.57;94.04;103558.66;5092409;28;20020;-68
2022/01/23 11:50:43;;;;;;;35.00;18.27;;;;;;;6.63;93.95;103554.75;5092515;28;20042;-67
2022/01/23 11:54:05;;;;;;;31.00;15.60;;;;;;;6.72;93.91;103542.66;5060475;28;20074;-68
2022/01/23 11:56:39;;;;;;;31.25;18.65;;;;;;;6.77;93.83;103551.16;5092258;28;20498;-68
2022/01/23 11:59:26;;;;;;;29.10;15.13;;;;;;;6.76;92.74;103552.97;5092174;28;20076;-68
2022/01/23 12:02:22;;;;;;;32.38;17.63;;;;;;;6.74;93.59;103551.38;5092110;28;20028;-68
2022/01/23 12:05:19;;;;;;;34.33;17.60;;;;;;;6.75;94.13;103540.66;5070727;28;20045;-68
2022/01/23 12:08:01;;;;;;;32.83;19.60;;;;;;;6.80;94.10;103537.69;5069838;28;20075;-68
2022/01/23 12:10:37;;;;;;;30.60;17.70;;;;;;;6.87;93.30;103536.31;5073452;28;20028;-68
2022/01/23 12:13:22;;;;;;;30.40;15.10;;;;;;;6.90;93.19;103538.75;5091276;28;20442;-68
2022/01/23 12:18:39;;;;;;;33.70;16.35;;;;;;;6.91;93.48;103535.13;5092020;28;20439;-68
2022/01/23 12:21:04;;;;;;;27.77;15.05;;;;;;;6.93;93.58;103535.88;5091896;28;20056;-67
2022/01/23 12:24:16;;;;;;;29.33;14.65;;;;;;;6.91;93.63;103528.97;5091518;28;20039;-68
2022/01/23 12:26:46;;;;;;;29.13;16.50;;;;;;;6.86;93.07;103517.84;5070844;28;20040;-68
2022/01/23 12:29:12;;;;;;;28.15;14.55;;;;;;;6.88;92.92;103529.19;5070932;28;20380;-68
2022/01/23 12:31:38;;;;;;;27.40;16.02;;;;;;;6.88;93.12;103535.34;5072208;28;20033;-68
2022/01/23 12:34:04;;;;;;;33.55;16.23;;;;;;;6.85;93.30;103522.31;5072036;28;20091;-67
2022/01/23 12:36:32;;;;;;;29.38;15.20;;;;;;;6.90;93.23;103525.50;5071909;28;20070;-68
2022/01/23 12:38:57;;;;;;;29.08;15.65;;;;;;;6.90;93.40;103514.88;5071917;28;20506;-68
2022/01/23 12:41:29;;;;;;;28.98;12.95;;;;;;;6.87;92.95;103517.75;5071608;28;20036;-68
2022/01/23 12:43:58;;;;;;;28.25;15.48;;;;;;;6.84;93.25;103512.66;5071897;28;20510;-68
2022/01/23 12:46:27;;;;;;;28.42;14.00;;;;;;;6.84;93.63;103509.13;5090698;28;20024;-68
2022/01/23 12:48:53;;;;;;;29.27;15.52;;;;;;;6.82;92.69;103503.13;5091054;28;20061;-67
2022/01/23 12:51:18;;;;;;;29.35;14.88;;;;;;;6.87;93.12;103504.47;5091144;28;20387;-67
2022/01/23 12:53:43;;;;;;;30.55;13.98;;;;;;;6.91;93.29;103507.75;5090827;28;20031;-67
2022/01/23 12:56:12;;;;;;;31.88;16.85;;;;;;;6.94;93.04;103508.41;5090904;28;20108;-68
2022/01/23 12:58:38;;;;;;;30.33;16.58;;;;;;;6.95;93.74;103507.44;5091021;28;20093;-68
2022/01/23 13:01:05;;;;;;;31.30;15.50;;;;;;;6.92;93.10;103502.38;5090857;28;20036;-68
2022/01/23 13:03:31;;;;;;;31.92;15.40;;;;;;;6.92;92.89;103497.06;5090696;28;20035;-68
2022/01/23 13:05:56;;;;;;;31.25;16.10;;;;;;;6.91;93.38;103498.00;5091103;28;20040;-68
2022/01/23 13:08:28;;;;;;;34.67;15.13;;;;;;;6.89;93.79;103491.97;5070705;28;20032;-68
2022/01/23 13:13:47;;;;;;;32.35;17.17;;;;;;;6.93;93.38;103490.78;5090277;28;20046;-68
2022/01/23 13:16:31;;;;;;;34.65;16.85;;;;;;;6.89;93.02;103486.66;5090577;28;20040;-68
2022/01/23 13:30:19;;;;;;;33.50;15.55;;;;;;;6.77;93.24;103484.84;5089748;28;20039;-67
2022/01/23 13:32:50;;;;;;;36.15;16.90;;;;;;;6.77;93.85;103487.50;5089681;28;20615;-68
2022/01/23 13:35:17;;;;;;;37.65;18.98;;;;;;;6.74;93.58;103483.25;5090076;28;20032;-68
2022/01/23 13:37:58;;;;;;;29.77;16.08;;;;;;;6.77;93.83;103484.84;5089813;28;20103;-68
2022/01/23 13:40:34;;;;;;;30.27;17.98;;;;;;;6.74;93.01;103482.41;5090108;28;20536;-68
2022/01/23 13:54:03;;;;;;;30.50;15.55;;;;;;;6.63;93.66;103480.50;5089339;28;20031;-68
2022/01/23 13:59:49;;;;;;;31.27;17.13;;;;;;;6.68;94.03;103475.75;5069830;28;20406;-68
2022/01/23 14:02:33;;;;;;;28.73;15.93;;;;;;;6.68;94.43;103472.22;5070098;28;20104;-68
2022/01/23 14:05:14;;;;;;;31.88;16.55;;;;;;;6.71;93.98;103469.38;5089562;28;20491;-68
2022/01/23 14:07:44;;;;;;;27.55;14.52;;;;;;;6.72;94.00;103473.72;5077761;28;20059;-67
2022/01/23 14:10:17;;;;;;;30.23;15.43;;;;;;;6.71;93.48;103469.38;5073809;28;20024;-67
2022/01/23 14:12:45;;;;;;;30.63;15.00;;;;;;;6.70;93.57;103470.31;5073782;28;20110;-66
2022/01/23 14:15:23;;;;;;;28.02;14.63;;;;;;;6.66;93.86;103461.72;5073526;28;20045;-67
2022/01/23 14:18:03;;;;;;;32.30;16.85;;;;;;;6.70;93.69;103462.34;5073720;28;20020;-67
2022/01/23 14:20:32;;;;;;;31.75;15.98;;;;;;;6.67;93.57;103465.22;5074176;28;20073;-66
2022/01/23 14:22:59;;;;;;;31.20;15.10;;;;;;;6.65;93.56;103469.78;5073720;28;20058;-66
2022/01/23 14:25:28;;;;;;;32.30;14.88;;;;;;;6.64;93.84;103476.06;5074135;28;20056;-68
2022/01/23 14:28:06;;;;;;;32.28;16.27;;;;;;;6.61;93.25;103473.63;5072604;28;20019;-69
2022/01/23 14:30:34;;;;;;;31.17;15.80;;;;;;;6.55;93.40;103470.44;5074412;28;20691;-69
2022/01/23 14:33:11;;;;;;;31.10;16.77;;;;;;;6.47;93.59;103467.47;5073823;28;20128;-70
2022/01/23 14:35:36;;;;;;;30.88;14.57;;;;;;;6.50;93.61;103482.31;5073268;28;20040;-66
2022/01/23 14:38:21;;;;;;;29.45;14.38;;;;;;;6.46;93.50;103472.84;5073945;28;20016;-69
2022/01/23 14:41:01;;;;;;;31.30;15.63;;;;;;;6.47;93.67;103482.50;5072151;28;20031;-71
2022/01/23 14:43:39;;;;;;;31.30;14.52;;;;;;;6.44;93.57;103491.50;5069836;28;20361;-71